createdAt,value
2023-04-02T00:04:44.389Z,0
2023-04-02T00:11:04.314Z,0
2023-04-02T00:17:27.457Z,0
2023-04-02T00:23:47.327Z,0
2023-04-02T00:30:10.330Z,0
2023-04-02T00:36:30.399Z,0
2023-04-02T00:42:53.370Z,0
2023-04-02T00:49:13.314Z,0
2023-04-02T00:55:36.784Z,0
2023-04-02T01:01:56.324Z,0
2023-04-02T01:08:19.408Z,0
2023-04-02T01:14:39.386Z,0
2023-04-02T01:21:02.357Z,0
2023-04-02T01:27:22.325Z,0
2023-04-02T01:33:45.388Z,0
2023-04-02T01:40:05.384Z,0
2023-04-02T01:46:28.444Z,0
2023-04-02T01:52:48.353Z,0
2023-04-02T01:59:11.322Z,0
2023-04-02T02:05:31.327Z,0
2023-04-02T02:11:54.379Z,0
2023-04-02T02:18:14.314Z,0
2023-04-02T02:24:37.513Z,0
2023-04-02T02:30:57.405Z,0
2023-04-02T02:37:20.344Z,0
2023-04-02T02:43:40.341Z,0
2023-04-02T02:50:03.385Z,0
2023-04-02T02:56:23.376Z,0
2023-04-02T03:02:46.507Z,0
2023-04-02T03:09:06.405Z,0
2023-04-02T03:15:29.483Z,0
2023-04-02T03:21:49.394Z,0
2023-04-02T03:28:12.456Z,0
2023-04-02T03:43:44.296Z,0
2023-04-02T03:50:04.295Z,0
2023-04-02T03:56:27.384Z,0
2023-04-02T04:02:47.378Z,0
2023-04-02T04:09:10.312Z,0
2023-04-02T04:15:30.414Z,0
2023-04-02T04:21:53.378Z,0
2023-04-02T04:28:13.324Z,0
2023-04-02T04:34:36.346Z,0
2023-04-02T04:40:56.381Z,1
2023-04-02T04:47:19.392Z,1
2023-04-02T04:53:39.347Z,3
2023-04-02T05:00:02.354Z,7
2023-04-02T05:06:22.400Z,12
2023-04-02T05:12:45.331Z,20
2023-04-02T05:19:05.434Z,29
2023-04-02T05:25:28.321Z,38
2023-04-02T05:31:48.470Z,51
2023-04-02T05:38:11.451Z,65
2023-04-02T05:44:31.364Z,89
2023-04-02T05:50:54.401Z,111
2023-04-02T05:57:14.409Z,161
2023-04-02T06:03:37.409Z,214
2023-04-02T06:09:57.372Z,226
2023-04-02T06:16:20.470Z,262
2023-04-02T06:22:40.462Z,313
2023-04-02T06:29:03.408Z,307
2023-04-02T06:35:23.393Z,347
2023-04-02T06:41:46.414Z,357
2023-04-02T06:48:06.410Z,350
2023-04-02T06:54:29.423Z,585
2023-04-02T07:00:49.411Z,696
2023-04-02T07:07:12.349Z,746
2023-04-02T07:13:32.451Z,645
2023-04-02T07:19:55.339Z,985
2023-04-02T07:26:15.358Z,1313
2023-04-02T07:32:38.486Z,1693
2023-04-02T07:38:58.338Z,1750
2023-04-02T07:45:21.428Z,1656
2023-04-02T07:51:41.374Z,1456
2023-04-02T07:58:04.424Z,1229
2023-04-02T08:04:24.489Z,1594
2023-04-02T08:10:47.431Z,1962
2023-04-02T08:17:07.393Z,1548
2023-04-02T08:23:30.360Z,2111
2023-04-02T08:29:50.437Z,2057
2023-04-02T08:36:13.381Z,2665
2023-04-02T08:42:33.414Z,2880
2023-04-02T08:58:25.298Z,2171
2023-04-02T09:04:45.391Z,1652
2023-04-02T09:11:08.315Z,1791
2023-04-02T09:17:29.218Z,1895
2023-04-02T09:23:51.422Z,1979
2023-04-02T09:30:11.399Z,1943
2023-04-02T09:36:34.436Z,1629
2023-04-02T09:42:54.616Z,1741
2023-04-02T09:49:17.388Z,2413
2023-04-02T09:55:37.592Z,1878
2023-04-02T10:02:00.420Z,1865
2023-04-02T10:08:20.374Z,1521
2023-04-02T10:14:43.452Z,1481
2023-04-02T10:21:03.415Z,1579
2023-04-02T10:27:26.426Z,1677
2023-04-02T10:33:46.410Z,1522
2023-04-02T10:40:09.460Z,1648
2023-04-02T10:46:29.476Z,1888
2023-04-02T10:52:52.486Z,1927
2023-04-02T10:59:12.340Z,2219
2023-04-02T11:05:35.558Z,2778
2023-04-02T11:11:55.409Z,2914
2023-04-02T11:18:18.351Z,3305
2023-04-02T11:24:38.410Z,3425
2023-04-02T11:31:01.443Z,3018
2023-04-02T11:37:21.375Z,2472
2023-04-02T11:43:44.382Z,2026
2023-04-02T11:50:04.444Z,2171
2023-04-02T11:56:27.402Z,2152
2023-04-02T12:02:47.411Z,2240
2023-04-02T12:09:10.409Z,2708
2023-04-02T12:15:30.370Z,2508
2023-04-02T12:21:53.371Z,2329
2023-04-02T12:28:13.413Z,2678
2023-04-02T12:34:36.336Z,2732
2023-04-02T12:40:56.412Z,3460
2023-04-02T12:47:19.359Z,4065
2023-04-02T12:53:39.365Z,4269
2023-04-02T13:00:02.468Z,3803
2023-04-02T13:06:22.385Z,3971
2023-04-02T13:12:45.414Z,3499
2023-04-02T13:19:05.335Z,3072
2023-04-02T13:25:28.376Z,2983
2023-04-02T13:31:48.422Z,2621
2023-04-02T13:38:11.390Z,2461
2023-04-02T13:44:31.430Z,2697
2023-04-02T13:50:54.352Z,2511
2023-04-02T13:57:14.354Z,2536
2023-04-02T14:03:37.381Z,1835
2023-04-02T14:27:02.330Z,1665
2023-04-02T14:33:21.586Z,1564
2023-04-02T14:39:44.450Z,1696
2023-04-02T14:46:04.450Z,1803
2023-04-02T14:52:27.383Z,1834
2023-04-02T14:58:47.419Z,1654
2023-04-02T15:05:10.400Z,1488
2023-04-02T15:11:30.403Z,1333
2023-04-02T15:17:53.390Z,1396
2023-04-02T15:24:13.672Z,1522
2023-04-02T15:30:36.456Z,1518
2023-04-02T15:36:56.388Z,1536
2023-04-02T15:43:19.428Z,1555
2023-04-02T15:49:39.372Z,1558
2023-04-02T15:56:02.325Z,1587
2023-04-02T16:02:22.436Z,1503
2023-04-02T16:08:45.369Z,1459
2023-04-02T16:15:05.437Z,1395
2023-04-02T16:21:28.372Z,1363
2023-04-02T16:27:48.352Z,1209
2023-04-02T16:34:11.422Z,1231
2023-04-02T16:40:31.360Z,1105
2023-04-02T16:46:54.532Z,965
2023-04-02T16:53:14.414Z,926
2023-04-02T16:59:37.414Z,729
2023-04-02T17:05:57.437Z,633
2023-04-02T17:12:20.378Z,491
2023-04-02T17:18:40.401Z,434
2023-04-02T17:25:03.408Z,395
2023-04-02T17:31:23.417Z,235
2023-04-02T17:37:46.398Z,177
2023-04-02T17:44:06.356Z,131
2023-04-02T17:50:29.356Z,90
2023-04-02T17:56:49.505Z,58
2023-04-02T18:03:12.377Z,38
2023-04-02T18:09:32.401Z,20
2023-04-02T18:15:55.401Z,10
2023-04-02T18:22:15.383Z,4
2023-04-02T18:28:38.407Z,1
2023-04-02T18:34:58.388Z,0
2023-04-02T18:41:21.408Z,0
2023-04-02T18:47:41.436Z,0
2023-04-02T18:54:04.483Z,0
2023-04-02T19:00:24.627Z,0
2023-04-02T19:06:47.324Z,0
2023-04-02T19:13:07.678Z,0
2023-04-02T19:19:30.386Z,0
2023-04-02T19:43:11.324Z,0
2023-04-02T19:49:31.355Z,0
2023-04-02T19:55:54.403Z,0
2023-04-02T20:02:18.052Z,0
2023-04-02T20:08:41.450Z,0
2023-04-02T20:15:01.424Z,0
2023-04-02T20:21:24.390Z,0
2023-04-02T20:27:44.379Z,0
2023-04-02T20:34:07.450Z,0
2023-04-02T20:40:27.356Z,0
2023-04-02T20:46:50.336Z,0
2023-04-02T20:53:10.315Z,0
2023-04-02T20:59:33.408Z,0
2023-04-02T21:05:53.344Z,0
2023-04-02T21:12:16.347Z,0
2023-04-02T21:18:36.486Z,0
2023-04-02T21:24:59.367Z,0
2023-04-02T21:31:19.445Z,0
2023-04-02T21:37:44.131Z,0
2023-04-02T21:44:02.342Z,0
2023-04-02T21:50:25.444Z,0
2023-04-02T21:56:45.397Z,0
2023-04-02T22:21:02.353Z,0
2023-04-02T22:27:22.348Z,0
2023-04-02T22:33:45.325Z,0
2023-04-02T22:40:05.387Z,0
2023-04-02T22:46:28.422Z,0
2023-04-02T22:52:48.343Z,0
2023-04-02T22:59:11.367Z,0
2023-04-02T23:05:31.485Z,0
2023-04-02T23:11:54.337Z,0
2023-04-02T23:18:14.445Z,0
2023-04-02T23:24:37.336Z,0
2023-04-02T23:30:57.388Z,0
2023-04-02T23:37:20.393Z,0
2023-04-02T23:43:40.396Z,0
2023-04-02T23:50:03.368Z,0
2023-04-02T23:56:23.391Z,0
